createdAt,value
2023-06-04T00:00:32.554Z,101165.13
2023-06-04T00:03:02.096Z,101156.28
2023-06-04T00:05:30.244Z,101155.44
2023-06-04T00:07:58.195Z,101155.44
2023-06-04T00:10:26.285Z,101152.00
2023-06-04T00:12:54.413Z,101147.69
2023-06-04T00:15:22.520Z,101139.88
2023-06-04T00:17:50.842Z,101147.75
2023-06-04T00:20:20.808Z,101149.50
2023-06-04T00:22:48.854Z,101147.84
2023-06-04T00:25:17.166Z,101149.66
2023-06-04T00:27:45.300Z,101145.47
2023-06-04T00:30:15.374Z,101150.88
2023-06-04T00:32:43.578Z,101151.88
2023-06-04T00:35:11.668Z,101156.38
2023-06-04T00:37:41.112Z,101150.34
2023-06-04T00:40:10.267Z,101156.56
2023-06-04T00:42:38.527Z,101155.78
2023-06-04T00:45:10.871Z,101151.50
2023-06-04T00:47:39.133Z,101144.44
2023-06-04T00:50:09.201Z,101146.25
2023-06-04T00:52:37.910Z,101144.47
2023-06-04T00:55:08.041Z,101142.84
2023-06-04T00:57:36.164Z,101141.94
2023-06-04T01:00:06.335Z,101139.28
2023-06-04T01:02:39.842Z,101135.66
2023-06-04T01:05:13.821Z,101133.97
2023-06-04T01:07:46.662Z,101139.25
2023-06-04T01:10:17.182Z,101137.38
2023-06-04T01:12:45.635Z,101136.38
2023-06-04T01:15:15.131Z,101135.47
2023-06-04T01:17:48.148Z,101132.75
2023-06-04T01:20:35.029Z,101130.94
2023-06-04T01:23:19.636Z,101124.75
2023-06-04T01:25:50.780Z,101116.81
2023-06-04T01:28:21.854Z,101122.94
2023-06-04T01:30:52.012Z,101130.94
2023-06-04T01:33:21.749Z,101121.97
2023-06-04T01:35:50.049Z,101123.69
2023-06-04T01:38:18.166Z,101123.66
2023-06-04T01:40:48.119Z,101118.28
2023-06-04T01:43:18.733Z,101128.16
2023-06-04T01:45:47.741Z,101129.13
2023-06-04T01:48:16.453Z,101139.00
2023-06-04T01:50:44.519Z,101141.75
2023-06-04T01:53:12.774Z,101143.53
2023-06-04T01:55:40.895Z,101141.53
2023-06-04T01:58:10.343Z,101142.31
2023-06-04T02:00:39.768Z,101138.72
2023-06-04T02:03:09.871Z,101138.72
2023-06-04T02:05:38.866Z,101140.50
2023-06-04T02:08:07.248Z,101137.84
2023-06-04T02:10:35.311Z,101131.81
2023-06-04T02:13:04.826Z,101143.53
2023-06-04T02:15:34.225Z,101151.50
2023-06-04T02:18:17.227Z,101148.84
2023-06-04T02:21:07.222Z,101155.16
2023-06-04T02:23:36.420Z,101153.31
2023-06-04T02:26:04.640Z,101157.72
2023-06-04T02:28:33.295Z,101149.94
2023-06-04T02:31:01.381Z,101147.19
2023-06-04T02:33:30.986Z,101147.25
2023-06-04T02:35:59.266Z,101151.78
2023-06-04T02:38:27.523Z,101146.53
2023-06-04T02:40:55.616Z,101139.47
2023-06-04T02:43:23.755Z,101147.41
2023-06-04T02:45:51.987Z,101139.59
2023-06-04T02:48:20.028Z,101136.13
2023-06-04T02:50:49.510Z,101135.25
2023-06-04T02:53:17.565Z,101136.28
2023-06-04T02:55:45.646Z,101129.31
2023-06-04T02:58:15.236Z,101129.34
2023-06-04T03:00:44.441Z,101129.38
2023-06-04T03:03:12.878Z,101133.84
2023-06-04T03:05:41.862Z,101130.41
2023-06-04T03:08:12.493Z,101122.44
2023-06-04T03:10:40.808Z,101125.94
2023-06-04T03:13:08.906Z,101126.72
2023-06-04T03:15:40.596Z,101116.19
2023-06-04T03:18:09.234Z,101128.44
2023-06-04T03:20:39.296Z,101130.97
2023-06-04T03:23:07.845Z,101122.09
2023-06-04T03:25:37.241Z,101129.06
2023-06-04T03:28:06.057Z,101123.81
2023-06-04T03:30:34.776Z,101116.81
2023-06-04T03:33:05.662Z,101119.50
2023-06-04T03:35:35.380Z,101110.50
2023-06-04T03:38:03.483Z,101120.25
2023-06-04T03:40:32.931Z,101106.09
2023-06-04T03:43:05.166Z,101109.66
2023-06-04T03:45:34.401Z,101114.00
2023-06-04T03:48:03.422Z,101108.75
2023-06-04T03:50:32.277Z,101110.47
2023-06-04T03:53:01.233Z,101104.94
2023-06-04T03:55:33.178Z,101109.41
2023-06-04T03:58:04.008Z,101111.19
2023-06-04T04:00:32.168Z,101102.91
2023-06-04T04:03:03.138Z,101102.63
2023-06-04T04:05:33.268Z,101106.06
2023-06-04T04:08:01.370Z,101106.94
2023-06-04T04:10:32.446Z,101106.78
2023-06-04T04:13:00.687Z,101097.06
2023-06-04T04:15:34.354Z,101106.88
2023-06-04T04:18:05.752Z,101102.28
2023-06-04T04:20:35.252Z,101098.66
2023-06-04T04:23:09.657Z,101098.75
2023-06-04T04:25:41.241Z,101105.88
2023-06-04T04:28:09.975Z,101099.69
2023-06-04T04:30:42.281Z,101094.47
2023-06-04T04:33:11.912Z,101091.47
2023-06-04T04:35:46.584Z,101093.75
2023-06-04T04:38:19.023Z,101092.28
2023-06-04T04:40:54.824Z,101090.03
2023-06-04T04:43:33.674Z,101088.47
2023-06-04T04:46:11.146Z,101066.28
2023-06-04T04:48:41.736Z,101085.28
2023-06-04T04:51:11.313Z,101093.47
2023-06-04T04:53:39.992Z,101095.72
2023-06-04T04:56:08.375Z,101092.28
2023-06-04T04:58:40.422Z,101085.03
2023-06-04T05:01:10.280Z,101085.22
2023-06-04T05:03:41.345Z,101083.19
2023-06-04T05:06:11.115Z,101069.22
2023-06-04T05:08:39.482Z,101070.34
2023-06-04T05:11:07.996Z,101079.44
2023-06-04T05:13:37.226Z,101072.25
2023-06-04T05:16:08.175Z,101077.53
2023-06-04T05:18:42.647Z,101070.63
2023-06-04T05:21:14.090Z,101076.63
2023-06-04T05:23:49.675Z,101066.78
2023-06-04T05:26:24.172Z,101069.53
2023-06-04T05:28:59.104Z,101084.75
2023-06-04T05:31:29.927Z,101077.56
2023-06-04T05:34:03.024Z,101073.81
2023-06-04T05:36:33.181Z,101075.72
2023-06-04T05:39:05.329Z,101077.53
2023-06-04T05:41:40.416Z,101084.66
2023-06-04T05:44:10.777Z,101070.19
2023-06-04T05:46:38.843Z,101076.88
2023-06-04T05:49:08.264Z,101079.91
2023-06-04T05:51:37.067Z,101077.22
2023-06-04T05:54:05.916Z,101082.00
2023-06-04T05:56:37.323Z,101077.66
2023-06-04T05:59:06.378Z,101077.38
2023-06-04T06:01:34.537Z,101074.31
2023-06-04T06:04:02.842Z,101072.00
2023-06-04T06:06:33.413Z,101079.84
2023-06-04T06:09:01.833Z,101078.13
2023-06-04T06:11:30.565Z,101078.22
2023-06-04T06:13:59.108Z,101071.25
2023-06-04T06:16:27.296Z,101075.69
2023-06-04T06:18:55.439Z,101068.31
2023-06-04T06:21:25.361Z,101073.06
2023-06-04T06:23:55.893Z,101076.47
2023-06-04T06:26:25.327Z,101081.13
2023-06-04T06:28:57.172Z,101072.38
2023-06-04T06:31:25.838Z,101086.22
2023-06-04T06:33:53.953Z,101088.38
2023-06-04T06:36:22.155Z,101075.38
2023-06-04T06:38:50.316Z,101074.28
2023-06-04T06:41:19.837Z,101073.47
2023-06-04T06:43:48.163Z,101079.63
2023-06-04T06:46:16.293Z,101093.16
2023-06-04T06:48:46.687Z,101107.16
2023-06-04T06:51:15.577Z,101092.81
2023-06-04T06:53:44.202Z,101097.31
2023-06-04T06:56:12.271Z,101099.59
2023-06-04T06:58:41.844Z,101105.63
2023-06-04T07:01:10.079Z,101107.78
2023-06-04T07:03:39.307Z,101109.34
2023-06-04T07:06:07.369Z,101105.00
2023-06-04T07:08:36.182Z,101107.56
2023-06-04T07:11:05.726Z,101105.97
2023-06-04T07:13:36.366Z,101107.75
2023-06-04T07:16:07.505Z,101107.72
2023-06-04T07:18:36.463Z,101095.16
2023-06-04T07:21:04.653Z,101103.16
2023-06-04T07:23:33.689Z,101105.00
2023-06-04T07:26:01.981Z,101102.25
2023-06-04T07:28:29.982Z,101109.28
2023-06-04T07:30:59.530Z,101100.13
2023-06-04T07:33:29.350Z,101099.78
2023-06-04T07:35:58.426Z,101100.81
2023-06-04T07:38:26.583Z,101110.41
2023-06-04T07:40:54.681Z,101115.78
2023-06-04T07:43:23.634Z,101117.28
2023-06-04T07:45:51.718Z,101103.50
2023-06-04T07:48:19.972Z,101113.06
2023-06-04T07:50:49.429Z,101121.91
2023-06-04T07:53:17.642Z,101118.31
2023-06-04T07:55:45.929Z,101118.22
2023-06-04T07:58:14.035Z,101119.88
2023-06-04T08:00:42.047Z,101120.91
2023-06-04T08:03:11.437Z,101119.66
2023-06-04T08:05:39.544Z,101129.16
2023-06-04T08:08:08.956Z,101137.31
2023-06-04T08:10:37.164Z,101134.28
2023-06-04T08:13:05.195Z,101134.53
2023-06-04T08:15:33.246Z,101132.22
2023-06-04T08:18:21.209Z,101127.19
2023-06-04T08:21:12.830Z,101133.50
2023-06-04T08:24:00.401Z,101141.13
2023-06-04T08:26:49.510Z,101146.22
2023-06-04T08:29:38.200Z,101149.81
2023-06-04T08:32:10.648Z,101146.81
2023-06-04T08:34:50.505Z,101139.69
2023-06-04T08:37:18.857Z,101139.56
2023-06-04T08:39:48.301Z,101138.00
2023-06-04T08:42:23.301Z,101135.97
2023-06-04T08:44:54.100Z,101145.44
2023-06-04T08:47:26.238Z,101140.31
2023-06-04T08:49:55.390Z,101141.72
2023-06-04T08:52:23.512Z,101145.06
2023-06-04T08:54:53.701Z,101144.25
2023-06-04T08:57:21.761Z,101140.44
2023-06-04T08:59:50.376Z,101155.97
2023-06-04T09:02:19.165Z,101142.66
2023-06-04T09:04:48.332Z,101151.72
2023-06-04T09:07:16.715Z,101136.03
2023-06-04T09:09:54.660Z,101148.72
2023-06-04T09:12:27.510Z,101139.13
2023-06-04T09:14:55.727Z,101140.47
2023-06-04T09:17:24.681Z,101141.88
2023-06-04T09:19:53.436Z,101136.66
2023-06-04T09:22:21.844Z,101132.16
2023-06-04T09:24:51.351Z,101138.25
2023-06-04T09:27:20.455Z,101138.22
2023-06-04T09:29:55.627Z,101131.63
2023-06-04T09:32:24.661Z,101142.09
2023-06-04T09:34:54.018Z,101140.13
2023-06-04T09:37:24.042Z,101140.44
2023-06-04T09:39:56.152Z,101140.03
2023-06-04T09:42:24.752Z,101137.47
2023-06-04T09:44:54.459Z,101141.47
2023-06-04T09:47:22.638Z,101145.75
2023-06-04T09:49:53.544Z,101138.72
2023-06-04T09:52:22.386Z,101148.91
2023-06-04T09:54:50.466Z,101136.88
2023-06-04T09:57:19.697Z,101137.09
2023-06-04T09:59:52.101Z,101142.97
2023-06-04T10:02:24.341Z,101139.69
2023-06-04T10:04:57.686Z,101141.59
2023-06-04T10:07:27.351Z,101138.28
2023-06-04T10:09:55.937Z,101139.97
2023-06-04T10:12:28.561Z,101135.44
2023-06-04T10:15:04.074Z,101131.66
2023-06-04T10:17:35.299Z,101135.00
2023-06-04T10:20:07.055Z,101138.66
2023-06-04T10:22:35.435Z,101144.38
2023-06-04T10:25:04.509Z,101149.41
2023-06-04T10:27:33.525Z,101135.78
2023-06-04T10:30:02.093Z,101143.03
2023-06-04T10:32:33.876Z,101136.81
2023-06-04T10:35:07.805Z,101142.06
2023-06-04T10:37:37.770Z,101148.63
2023-06-04T10:40:07.183Z,101154.09
2023-06-04T10:42:40.847Z,101152.50
2023-06-04T10:45:10.984Z,101153.41
2023-06-04T10:47:42.748Z,101147.41
2023-06-04T10:50:12.757Z,101151.56
2023-06-04T10:52:52.549Z,101150.03
2023-06-04T10:55:21.036Z,101152.56
2023-06-04T10:57:56.180Z,101151.09
2023-06-04T11:00:25.110Z,101145.19
2023-06-04T11:02:56.666Z,101152.03
2023-06-04T11:05:36.723Z,101151.78
2023-06-04T11:08:05.802Z,101157.69
2023-06-04T11:10:36.225Z,101160.41
2023-06-04T11:13:06.221Z,101157.72
2023-06-04T11:15:45.224Z,101147.28
2023-06-04T11:18:18.372Z,101159.97
2023-06-04T11:20:46.916Z,101153.72
2023-06-04T11:23:15.968Z,101152.78
2023-06-04T11:25:45.255Z,101159.72
2023-06-04T11:28:18.913Z,101167.13
2023-06-04T11:30:58.274Z,101164.00
2023-06-04T11:33:28.231Z,101173.69
2023-06-04T11:35:56.695Z,101167.44
2023-06-04T11:38:24.740Z,101180.91
2023-06-04T11:41:00.626Z,101180.03
2023-06-04T11:43:30.030Z,101184.59
2023-06-04T11:45:58.658Z,101186.09
2023-06-04T11:48:28.912Z,101186.09
2023-06-04T11:50:58.553Z,101194.41
2023-06-04T11:53:27.312Z,101191.34
2023-06-04T11:55:55.555Z,101191.44
2023-06-04T12:11:03.704Z,101189.84
2023-06-04T12:13:39.945Z,101198.84
2023-06-04T12:16:08.195Z,101189.91
2023-06-04T12:18:36.939Z,101201.28
2023-06-04T12:21:05.018Z,101195.13
2023-06-04T12:23:33.147Z,101192.66
2023-06-04T12:26:03.500Z,101197.31
2023-06-04T12:28:33.136Z,101196.13
2023-06-04T12:31:01.343Z,101209.50
2023-06-04T12:33:29.407Z,101202.69
2023-06-04T12:35:57.400Z,101208.16
2023-06-04T12:38:25.436Z,101208.09
2023-06-04T12:40:53.562Z,101206.53
2023-06-04T12:43:21.664Z,101211.06
2023-06-04T12:45:51.034Z,101212.00
2023-06-04T12:48:19.329Z,101218.63
2023-06-04T12:50:47.390Z,101210.38
2023-06-04T12:53:15.403Z,101204.94
2023-06-04T12:55:43.573Z,101210.03
2023-06-04T12:58:11.668Z,101216.16
2023-06-04T13:00:39.725Z,101216.34
2023-06-04T13:03:09.835Z,101212.00
2023-06-04T13:05:38.844Z,101218.97
2023-06-04T13:08:07.044Z,101216.09
2023-06-04T13:10:35.132Z,101212.56
2023-06-04T13:13:03.150Z,101211.53
2023-06-04T13:15:31.544Z,101211.63
2023-06-04T13:18:00.718Z,101212.41
2023-06-04T13:20:30.194Z,101217.56
2023-06-04T13:22:58.349Z,101214.00
2023-06-04T13:25:26.383Z,101225.50
2023-06-04T13:27:54.422Z,101221.88
2023-06-04T13:30:23.274Z,101220.09
2023-06-04T13:32:51.353Z,101226.50
2023-06-04T13:35:19.472Z,101226.50
2023-06-04T13:37:49.073Z,101215.88
2023-06-04T13:40:17.727Z,101225.63
2023-06-04T13:42:45.947Z,101231.09
2023-06-04T13:45:14.232Z,101231.16
2023-06-04T13:47:42.389Z,101226.72
2023-06-04T13:50:11.669Z,101229.41
2023-06-04T13:52:39.774Z,101232.91
2023-06-04T13:55:10.293Z,101234.94
2023-06-04T13:57:38.457Z,101237.06
2023-06-04T14:00:08.918Z,101231.88
2023-06-04T14:02:37.385Z,101241.72
2023-06-04T14:05:07.442Z,101245.59
2023-06-04T14:07:35.668Z,101247.34
2023-06-04T14:10:03.761Z,101240.38
2023-06-04T14:12:33.330Z,101250.31
2023-06-04T14:15:01.401Z,101248.63
2023-06-04T14:17:30.362Z,101246.28
2023-06-04T14:19:58.548Z,101254.25
2023-06-04T14:22:26.658Z,101250.72
2023-06-04T14:24:54.820Z,101261.38
2023-06-04T14:27:22.932Z,101259.66
2023-06-04T14:29:52.428Z,101254.34
2023-06-04T14:32:20.595Z,101260.59
2023-06-04T14:34:48.621Z,101256.13
2023-06-04T14:37:16.767Z,101252.59
2023-06-04T14:39:44.919Z,101254.78
2023-06-04T14:42:13.066Z,101261.03
2023-06-04T14:44:41.265Z,101268.91
2023-06-04T14:47:10.801Z,101273.16
2023-06-04T14:49:38.927Z,101272.97
2023-06-04T14:52:07.425Z,101281.63
2023-06-04T14:54:35.856Z,101287.09
2023-06-04T14:57:04.408Z,101282.50
2023-06-04T15:02:43.311Z,101284.88
2023-06-04T15:05:11.476Z,101291.28
2023-06-04T15:07:39.974Z,101289.19
2023-06-04T15:10:09.897Z,101290.13
2023-06-04T15:12:39.271Z,101288.38
2023-06-04T15:15:09.185Z,101286.09
2023-06-04T15:30:18.545Z,101287.84
2023-06-04T15:32:46.757Z,101287.22
2023-06-04T15:35:14.939Z,101283.63
2023-06-04T15:37:43.027Z,101284.59
2023-06-04T15:40:12.117Z,101279.19
2023-06-04T15:42:40.231Z,101278.94
2023-06-04T15:45:10.304Z,101292.38
2023-06-04T15:47:39.918Z,101283.69
2023-06-04T15:50:09.246Z,101286.44
2023-06-04T15:52:37.445Z,101282.81
2023-06-04T15:55:06.426Z,101277.94
2023-06-04T15:57:34.513Z,101275.91
2023-06-04T16:00:02.815Z,101278.50
2023-06-04T16:02:32.785Z,101275.91
2023-06-04T16:05:02.436Z,101265.88
2023-06-04T16:07:32.034Z,101264.59
2023-06-04T16:10:00.243Z,101264.69
2023-06-04T16:12:28.291Z,101267.91
2023-06-04T16:14:56.334Z,101268.72
2023-06-04T16:17:24.506Z,101270.53
2023-06-04T16:19:52.554Z,101271.53
2023-06-04T16:22:23.591Z,101287.69
2023-06-04T16:24:52.208Z,101289.34
2023-06-04T16:27:20.241Z,101283.19
2023-06-04T16:29:48.381Z,101295.69
2023-06-04T16:32:16.809Z,101290.72
2023-06-04T16:34:45.040Z,101285.13
2023-06-04T16:37:13.188Z,101295.41
2023-06-04T16:39:42.601Z,101297.50
2023-06-04T16:42:11.217Z,101299.44
2023-06-04T16:44:39.434Z,101299.59
2023-06-04T16:47:07.717Z,101303.25
2023-06-04T16:49:35.972Z,101304.25
2023-06-04T16:52:05.192Z,101305.09
2023-06-04T16:54:33.268Z,101309.00
2023-06-04T16:57:02.833Z,101313.56
2023-06-04T16:59:32.378Z,101311.69
2023-06-04T17:02:00.715Z,101309.69
2023-06-04T17:04:28.804Z,101320.56
2023-06-04T17:06:57.778Z,101326.72
2023-06-04T17:09:25.952Z,101330.91
2023-06-04T17:11:54.146Z,101332.63
2023-06-04T17:14:23.576Z,101332.63
2023-06-04T17:16:51.748Z,101331.03
2023-06-04T17:19:20.054Z,101333.75
2023-06-04T17:21:48.306Z,101333.03
2023-06-04T17:24:16.518Z,101336.75
2023-06-04T17:26:44.665Z,101333.94
2023-06-04T17:29:12.906Z,101334.81
2023-06-04T17:31:42.279Z,101334.84
2023-06-04T17:34:10.345Z,101339.28
2023-06-04T17:36:38.879Z,101329.41
2023-06-04T17:39:07.195Z,101328.41
2023-06-04T17:41:35.397Z,101327.44
2023-06-04T17:44:03.538Z,101330.19
2023-06-04T17:46:31.771Z,101328.53
2023-06-04T17:49:04.358Z,101325.88
2023-06-04T17:51:32.360Z,101316.25
2023-06-04T17:54:00.485Z,101325.06
2023-06-04T17:56:29.191Z,101327.19
2023-06-04T17:58:57.312Z,101324.63
2023-06-04T18:01:25.580Z,101326.38
2023-06-04T18:03:53.752Z,101326.38
2023-06-04T18:06:23.284Z,101322.75
2023-06-04T18:08:53.134Z,101323.59
2023-06-04T18:11:22.757Z,101321.72
2023-06-04T18:13:50.977Z,101327.94
2023-06-04T18:16:19.144Z,101320.81
2023-06-04T18:18:47.373Z,101320.84
2023-06-04T18:21:15.719Z,101321.78
2023-06-04T18:23:50.743Z,101327.06
2023-06-04T18:26:19.213Z,101331.69
2023-06-04T18:28:47.822Z,101336.09
2023-06-04T18:31:15.859Z,101330.16
2023-06-04T18:33:52.152Z,101329.34
2023-06-04T18:36:21.170Z,101332.25
2023-06-04T18:38:50.616Z,101325.56
2023-06-04T18:41:19.178Z,101325.88
2023-06-04T18:43:47.232Z,101319.81
2023-06-04T18:46:15.570Z,101322.72
2023-06-04T18:48:43.701Z,101327.31
2023-06-04T18:51:11.888Z,101314.22
2023-06-04T18:53:40.193Z,101326.88
2023-06-04T18:56:09.851Z,101333.97
2023-06-04T18:58:38.170Z,101325.28
2023-06-04T19:01:07.144Z,101328.09
2023-06-04T19:03:35.407Z,101322.03
2023-06-04T19:06:03.512Z,101330.16
2023-06-04T19:08:31.755Z,101320.50
2023-06-04T19:10:59.878Z,101325.91
2023-06-04T19:13:29.546Z,101324.97
2023-06-04T19:15:57.811Z,101320.63
2023-06-04T19:18:25.907Z,101318.84
2023-06-04T19:20:54.094Z,101321.66
2023-06-04T19:23:22.291Z,101330.53
2023-06-04T19:25:50.353Z,101333.22
2023-06-04T19:28:18.881Z,101338.63
2023-06-04T19:30:48.562Z,101330.72
2023-06-04T19:33:16.676Z,101335.97
2023-06-04T19:35:44.987Z,101338.63
2023-06-04T19:38:13.169Z,101333.31
2023-06-04T19:40:41.252Z,101335.94
2023-06-04T19:43:09.530Z,101334.19
2023-06-04T19:45:38.481Z,101334.25
2023-06-04T19:48:08.137Z,101333.41
2023-06-04T19:50:36.695Z,101329.91
2023-06-04T19:53:04.847Z,101329.28
2023-06-04T19:55:33.061Z,101336.28
2023-06-04T19:58:01.355Z,101333.69
2023-06-04T20:00:29.601Z,101324.78
2023-06-04T20:02:58.161Z,101331.84
2023-06-04T20:05:27.626Z,101328.38
2023-06-04T20:07:55.800Z,101325.78
2023-06-04T20:10:25.506Z,101329.44
2023-06-04T20:12:53.648Z,101326.06
2023-06-04T20:15:21.888Z,101325.22
2023-06-04T20:17:50.259Z,101318.16
2023-06-04T20:20:18.408Z,101326.22
2023-06-04T20:22:48.105Z,101323.66
2023-06-04T20:25:16.347Z,101325.50
2023-06-04T20:27:44.440Z,101321.16
2023-06-04T20:30:14.046Z,101323.00
2023-06-04T20:32:42.829Z,101318.59
2023-06-04T20:35:11.294Z,101333.66
2023-06-04T20:37:40.325Z,101319.53
2023-06-04T20:40:10.460Z,101324.88
2023-06-04T20:42:38.552Z,101331.13
2023-06-04T20:45:07.874Z,101327.59
2023-06-04T20:47:36.100Z,101331.16
2023-06-04T20:50:04.433Z,101333.84
2023-06-04T20:52:32.669Z,101333.00
2023-06-04T20:55:00.803Z,101337.38
2023-06-04T20:57:30.178Z,101324.00
2023-06-04T20:59:58.318Z,101331.13
2023-06-04T21:02:26.526Z,101331.16
2023-06-04T21:04:54.668Z,101332.91
2023-06-04T21:07:22.780Z,101329.41
2023-06-04T21:09:50.908Z,101329.38
2023-06-04T21:12:18.984Z,101335.63
2023-06-04T21:14:48.469Z,101335.72
2023-06-04T21:17:16.572Z,101337.53
2023-06-04T21:19:44.627Z,101330.56
2023-06-04T21:22:12.723Z,101334.19
2023-06-04T21:24:40.813Z,101337.84
2023-06-04T21:27:08.834Z,101338.81
2023-06-04T21:29:36.934Z,101333.56
2023-06-04T21:32:07.022Z,101336.22
2023-06-04T21:34:35.109Z,101338.88
2023-06-04T21:37:03.218Z,101335.41
2023-06-04T21:39:31.244Z,101338.25
2023-06-04T21:41:59.332Z,101333.88
2023-06-04T21:44:27.369Z,101340.06
2023-06-04T21:46:55.941Z,101335.72
2023-06-04T21:49:25.673Z,101334.91
2023-06-04T21:51:53.725Z,101330.50
2023-06-04T21:54:21.975Z,101329.59
2023-06-04T21:56:50.175Z,101341.97
2023-06-04T21:59:18.235Z,101335.81
2023-06-04T22:01:47.860Z,101330.56
2023-06-04T22:04:16.171Z,101340.28
2023-06-04T22:06:45.585Z,101339.41
2023-06-04T22:09:13.620Z,101337.69
2023-06-04T22:11:41.678Z,101338.69
2023-06-04T22:14:09.845Z,101341.38
2023-06-04T22:16:38.151Z,101333.44
2023-06-04T22:19:06.194Z,101339.59
2023-06-04T22:21:34.314Z,101336.09
2023-06-04T22:24:04.397Z,101338.72
2023-06-04T22:26:37.891Z,101341.41
2023-06-04T22:29:06.906Z,101336.97
2023-06-04T22:31:35.171Z,101331.66
2023-06-04T22:34:05.511Z,101336.09
2023-06-04T22:36:33.649Z,101341.41
2023-06-04T22:39:01.739Z,101342.28
2023-06-04T22:41:31.130Z,101348.53
2023-06-04T22:43:59.320Z,101344.13
2023-06-04T22:46:27.392Z,101350.34
2023-06-04T22:48:55.571Z,101337.94
2023-06-04T22:51:24.416Z,101344.13
2023-06-04T22:53:53.314Z,101343.31
2023-06-04T22:56:21.903Z,101343.31
2023-06-04T22:58:51.432Z,101347.81
2023-06-04T23:01:20.821Z,101348.69
2023-06-04T23:03:49.048Z,101357.53
2023-06-04T23:06:17.509Z,101349.59
2023-06-04T23:08:45.783Z,101353.13
2023-06-04T23:11:14.027Z,101357.56
2023-06-04T23:13:42.226Z,101354.03
2023-06-04T23:16:12.083Z,101353.13
2023-06-04T23:18:40.262Z,101355.81
2023-06-04T23:21:08.563Z,101355.81
2023-06-04T23:23:36.902Z,101361.09
2023-06-04T23:26:05.170Z,101360.22
2023-06-04T23:28:33.258Z,101362.88
2023-06-04T23:31:01.311Z,101363.78
2023-06-04T23:33:30.686Z,101368.25
2023-06-04T23:35:58.726Z,101361.16
2023-06-04T23:38:26.998Z,101364.66
2023-06-04T23:40:55.091Z,101368.19
2023-06-04T23:43:23.149Z,101367.34
2023-06-04T23:45:51.216Z,101359.47
2023-06-04T23:48:19.328Z,101368.31
2023-06-04T23:50:48.720Z,101376.25
2023-06-04T23:53:16.723Z,101366.53
2023-06-04T23:55:44.828Z,101362.94
2023-06-04T23:58:12.969Z,101370.91
